Tambon Phrabat, Thailand

1:12 PM ICT on August 29, 2015 (GMT +0700)
Lampang | | Change Station
CLOSE
Current Station
Airport
Location: Lampang,
Elevation: 794 ft
Nearby Weather Stations

Elev 794 ft 18.28 °N, 99.51 °E | Updated 12 minutes ago

Overcast
Overcast
91 °F
Feels Like 100 °F
N
5
Wind Variable Wind from Variable

Today
High -- | Low -- °F
--% Chance of Precip.
Yesterday
High -- | Low -- °F
Precip. -- in
6:06 AM 6:39 PM
Full, 100% visible
Pressure 29.74 in
Visibility 6.2 miles
Clouds Scattered Clouds 2500 ft
Mostly Cloudy 5000 ft
Overcast 20000 ft
Heat Index 100 °F
Dew Point 73 °F
Humidity 55%
Rainfall 0.00 in
Snow Depth Not available.
UV 5 out of 12
Pollen Not available.
Air Quality Not available.
Flu Activity Not available.
METAR VTCL 290600Z VRB04KT 9999 SCT025 BKN050 OVC200 33/23 Q1007 A2976 INFO: H
Pressure 29.74 in
Visibility 6.2 miles
Clouds Scattered Clouds 2500 ft
Mostly Cloudy 5000 ft
Overcast 20000 ft
Heat Index 100 °F
Dew Point 73 °F
Humidity 55%
Rainfall 0.00 in
Snow Depth Not available.
UV 5 out of 12
Pollen Not available.
Air Quality Not available.
Flu Activity Not available.
METAR VTCL 290600Z VRB04KT 9999 SCT025 BKN050 OVC200 33/23 Q1007 A2976 INFO: H

10-Day Weather Forecast

×

Almanac

Astronomy

Aug. 29, 2015 Rise Set
Actual Time
Civil Twilight
Nautical Twilight
Astronomical Twilight
Moon
Length of Visible Light
Length of Day
Tomorrow will be .
, % of the Moon is Illuminated

Today's Extremes

Country Highs Country Lows

Community

WunderPhotos

Upload Photos

1,850,622 photos uploaded!

WunderBlogs® & News

Nearby

Air Quality

  Air Quality AQ Index Pollutant
Not available.

Snow Depth

Station Depth Elevation

Earthquake Activity

City Distance Mag. Time & Date
Minimum magnitude displayed is 2.5.

Coastal Water Temperatures

Place Temperature

Stations

Nearby Weather Stations

Station Location Temp. Windchill Dew Point Humidity Wind Precip. Elev Updated Type